CheckWX is a tool to help pilots better visualize weather data.  It is not intended as a substitute for an official pre-flight weather briefing.

04:57:12 UTC

KEFD TAF
Ellington Airport
Houston, Texas, USA
TAF KEFD 260400Z 2604/2710 VRB06KT 9999 SCT015 BKN040 QNH2973INS BECMG 2607/2608 VRB06KT 9999 BKN010 OVC040 QNH2978INS BECMG 2614/2615 19010G15KT 9999 SCT030 QNH2971INS BECMG 2706/2707 VRB06KT 9999 BKN015 QNH2984INS TX36/2621Z TN26/2612Z

Aug-26@
04:00 UTC

Aug-26 @ 04:00 UTC

Aug-26@
07:00 UTC

Aug-26 @ 07:00 UTC

TAF KEFD 260400Z 2604/2710 VRB06KT 9999 SCT015 BKN040 QNH2973INS
Wind
  • Variable at 6 KTS
Cloud Levels
  • Scattered at 1,500' AGL
  • Broken at 4,000' AGL

Aug-26@
07:00 UTC

Aug-26 @ 07:00 UTC

Aug-26@
14:00 UTC

Aug-26 @ 14:00 UTC

BECMG 2607/2608 VRB06KT 9999 BKN010 OVC040 QNH2978INS

Becoming

Becoming Conditions expected by Mon, Aug 26, 2019 @ 08:00 UTC

Wind
  • Variable at 6 KTS
Cloud Levels
  • Broken at 1,000' AGL
  • Overcast at 4,000' AGL

Aug-26@
14:00 UTC

Aug-26 @ 14:00 UTC

Aug-27@
06:00 UTC

Aug-27 @ 06:00 UTC

BECMG 2614/2615 19010G15KT 9999 SCT030 QNH2971INS

Becoming

Becoming Conditions expected by Mon, Aug 26, 2019 @ 15:00 UTC

Wind
  • 190° at 10 KTS
  • {Gusting to 15 KTS
Cloud Levels
  • Scattered at 3,000' AGL

Aug-27@
06:00 UTC

Aug-27 @ 06:00 UTC

Aug-27@
10:00 UTC

Aug-27 @ 10:00 UTC

BECMG 2706/2707 VRB06KT 9999 BKN015 QNH2984INS TX36/2621Z TN26/2612Z

Becoming

Becoming Conditions expected by Tue, Aug 27, 2019 @ 07:00 UTC

Wind
  • Variable at 6 KTS
Cloud Levels
  • Broken at 1,500' AGL